Hawaiian Gardens, California
Current Conditions -  °F | °C
As of 12:58 PM on Wednesday 26 Nov 2014 (Local Time) from KSLI Reporting Station
Clear Clear  
Wind Chill: 84°   Ceiling: Unl
Heat Index: 84°   Visibility: 10mi
Dew Point: 34°   Wind: 6mph
Humidity: 17%   Direction: NA
Pressure: 30.14"   Gusts: NA
Location:  33.83°N, 118.08°W
Report Text: KSLI 262058Z VRB05KT 10SM CLR 29/01 A3014 RMK AO2A SLP209 T02880013 57029
Loading
Personal Weather Stations






























Interactive Weather Map New forecast layout! Learn more

10-Day Weather Forecast

Advertisements
Track Severe Weather on mobile